Time;durP1;ratioP1;P1;durP2;ratioP2;P2;SDS_P1;SDS_P2;PMS_P1;PMS_P2;Temp;Humidity;BMP_temperature;BMP_pressure;BME280_temperature;BME280_humidity;BME280_pressure;Samples;Min_cycle;Max_cycle;Signal;HPM_P1;HPM_P2
2021/06/17 00:01:06;;;;;;;5.93;4.60;;;;;;;29.08;43.53;100709.41;5034651;28;20120;-60
2021/06/17 00:03:31;;;;;;;6.57;3.85;;;;;;;29.02;43.60;100702.16;5036387;28;20029;-58
2021/06/17 00:05:57;;;;;;;5.75;4.13;;;;;;;29.02;42.38;100700.22;5051019;28;20045;-57
2021/06/17 00:08:22;;;;;;;8.27;4.30;;;;;;;29.01;43.26;100695.78;5056141;28;20031;-60
2021/06/17 00:10:49;;;;;;;6.80;4.22;;;;;;;28.98;42.81;100710.09;5055661;28;20393;-60
2021/06/17 00:13:22;;;;;;;5.80;4.18;;;;;;;28.94;43.64;100702.59;5037802;28;20025;-60
2021/06/17 00:15:49;;;;;;;6.13;3.95;;;;;;;28.90;44.01;100702.25;5055900;28;20025;-57
2021/06/17 00:18:15;;;;;;;5.05;4.20;;;;;;;28.85;42.96;100702.16;5054257;28;20035;-57
2021/06/17 00:20:42;;;;;;;6.95;4.47;;;;;;;28.82;43.40;100703.50;5055729;28;20385;-57
2021/06/17 00:23:07;;;;;;;6.57;4.90;;;;;;;28.80;43.99;100708.44;5055394;28;20036;-61
2021/06/17 00:25:33;;;;;;;7.18;4.20;;;;;;;28.78;43.25;100698.75;5055916;28;20025;-60
2021/06/17 00:27:59;;;;;;;7.05;4.38;;;;;;;28.73;43.61;100705.00;5055625;28;20104;-60
2021/06/17 00:30:25;;;;;;;6.50;4.68;;;;;;;28.69;43.25;100700.25;5055503;28;20044;-60
2021/06/17 00:32:51;;;;;;;6.40;4.60;;;;;;;28.67;44.22;100705.19;5054039;28;20104;-60
2021/06/17 00:35:17;;;;;;;7.68;4.65;;;;;;;28.62;44.48;100696.78;5055122;28;20025;-60
2021/06/17 00:37:43;;;;;;;6.55;5.03;;;;;;;28.59;43.78;100689.03;5037922;28;20085;-60
2021/06/17 00:40:11;;;;;;;7.22;5.38;;;;;;;28.56;43.44;100684.03;5037550;28;20377;-60
2021/06/17 00:42:38;;;;;;;5.50;4.93;;;;;;;28.49;43.48;100678.69;5055089;28;20063;-60
2021/06/17 00:45:10;;;;;;;5.97;5.22;;;;;;;28.52;43.67;100674.59;5055052;28;20370;-60
2021/06/17 00:47:36;;;;;;;5.88;4.95;;;;;;;28.50;43.88;100679.53;5055234;28;20029;-60
2021/06/17 00:50:02;;;;;;;5.32;4.57;;;;;;;28.49;44.51;100683.34;5055191;28;20088;-60
2021/06/17 00:52:29;;;;;;;7.90;4.70;;;;;;;28.48;43.95;100676.16;5037105;28;20024;-60
2021/06/17 00:54:57;;;;;;;5.50;4.95;;;;;;;28.50;44.59;100683.13;5037621;28;20028;-61
2021/06/17 00:57:23;;;;;;;7.40;4.70;;;;;;;28.47;44.04;100674.50;5054735;28;20025;-60
2021/06/17 00:59:48;;;;;;;5.70;5.00;;;;;;;28.45;44.13;100676.69;5037289;28;20033;-60
2021/06/17 01:02:14;;;;;;;11.57;5.68;;;;;;;28.40;44.00;100674.66;5055392;28;20030;-60
2021/06/17 01:04:40;;;;;;;9.15;5.25;;;;;;;28.37;44.06;100677.91;5036633;28;20076;-61
2021/06/17 01:07:06;;;;;;;7.80;5.18;;;;;;;28.35;44.94;100676.50;5055028;28;20056;-60
2021/06/17 01:10:02;;;;;;;6.18;5.10;;;;;;;28.31;44.73;100679.75;5054880;28;20464;-60
2021/06/17 01:12:33;;;;;;;10.80;5.70;;;;;;;28.26;44.81;100684.31;5055062;28;20039;-60
2021/06/17 01:15:03;;;;;;;8.73;6.13;;;;;;;28.28;44.34;100694.00;5054665;28;20033;-60
2021/06/17 01:17:30;;;;;;;11.02;4.95;;;;;;;28.25;44.46;100686.25;5036618;28;20025;-60
2021/06/17 01:20:12;;;;;;;7.75;5.82;;;;;;;28.19;44.56;100684.50;5036886;28;20020;-60
2021/06/17 01:23:13;;;;;;;8.90;4.95;;;;;;;28.15;44.07;100686.06;5053539;28;20029;-60
2021/06/17 01:25:50;;;;;;;7.65;4.93;;;;;;;28.10;44.24;100691.50;5053392;28;20032;-60
2021/06/17 01:28:17;;;;;;;8.00;5.03;;;;;;;28.06;44.74;100695.81;5054914;28;20025;-60
2021/06/17 01:30:54;;;;;;;8.95;5.72;;;;;;;28.05;45.20;100698.84;5036654;28;20031;-60
2021/06/17 01:33:23;;;;;;;12.05;5.20;;;;;;;28.01;44.53;100698.44;5054374;28;20028;-60
2021/06/17 01:35:49;;;;;;;7.75;6.05;;;;;;;27.99;44.48;100694.28;5036932;28;20535;-60
2021/06/17 01:38:18;;;;;;;7.55;5.22;;;;;;;27.94;45.26;100699.69;5053337;28;20029;-60
2021/06/17 01:40:46;;;;;;;7.70;5.57;;;;;;;27.91;45.06;100694.66;5036523;28;20021;-60
2021/06/17 01:43:11;;;;;;;7.22;5.32;;;;;;;27.87;45.28;100691.56;5036355;28;20431;-60
2021/06/17 01:45:37;;;;;;;7.43;5.70;;;;;;;27.86;45.10;100695.41;5053887;28;20024;-60
2021/06/17 01:48:03;;;;;;;8.07;6.15;;;;;;;27.83;45.34;100690.41;5036354;28;20029;-57
2021/06/17 01:50:29;;;;;;;9.05;5.22;;;;;;;27.79;45.54;100688.38;5035584;28;20393;-58
2021/06/17 01:52:55;;;;;;;10.13;5.18;;;;;;;27.80;44.86;100690.88;5054116;28;20032;-58
2021/06/17 01:55:22;;;;;;;8.65;5.50;;;;;;;27.78;45.13;100698.53;5035977;28;20036;-58
2021/06/17 01:57:47;;;;;;;7.53;5.18;;;;;;;27.75;45.06;100699.88;5052940;28;20025;-59
2021/06/17 02:00:13;;;;;;;8.88;5.32;;;;;;;27.73;45.04;100701.19;5036360;28;20547;-58
2021/06/17 02:02:39;;;;;;;9.15;6.15;;;;;;;27.68;45.94;100695.59;5054184;28;20036;-58
2021/06/17 02:05:06;;;;;;;7.28;6.15;;;;;;;27.62;45.44;100688.31;5053536;28;20162;-58
2021/06/17 02:07:32;;;;;;;8.07;5.63;;;;;;;27.58;45.69;100698.16;5053572;28;20029;-58
2021/06/17 02:09:57;;;;;;;11.75;6.13;;;;;;;27.56;45.92;100700.28;5019518;28;20028;-59
2021/06/17 02:12:25;;;;;;;6.82;5.40;;;;;;;27.53;45.77;100690.59;5036065;28;20536;-58
2021/06/17 02:14:51;;;;;;;7.10;5.80;;;;;;;27.52;45.71;100693.59;5054412;28;20044;-58
2021/06/17 02:17:17;;;;;;;8.43;7.47;;;;;;;27.49;45.34;100689.44;5053811;28;20024;-59
2021/06/17 02:19:43;;;;;;;8.00;5.70;;;;;;;27.48;45.50;100686.91;5053872;28;20033;-59
2021/06/17 02:22:09;;;;;;;9.75;5.35;;;;;;;27.46;45.50;100694.56;5054048;28;20373;-58
2021/06/17 02:24:38;;;;;;;8.10;5.65;;;;;;;27.43;46.05;100686.81;5054079;28;20469;-58
2021/06/17 02:27:16;;;;;;;7.43;6.25;;;;;;;27.40;45.88;100687.25;5035977;28;20027;-59
2021/06/17 02:29:44;;;;;;;8.40;6.05;;;;;;;27.36;45.55;100695.16;5052543;28;20049;-58
2021/06/17 02:32:14;;;;;;;8.75;5.68;;;;;;;27.35;46.23;100688.00;5052743;28;20493;-58
2021/06/17 02:34:41;;;;;;;11.13;6.93;;;;;;;27.33;45.85;100689.31;5052500;28;20424;-58
2021/06/17 02:37:07;;;;;;;14.45;6.57;;;;;;;27.31;45.95;100674.94;5036112;28;20094;-57
2021/06/17 02:39:33;;;;;;;12.02;6.20;;;;;;;27.28;46.06;100667.16;5019446;28;20029;-58
2021/06/17 02:42:00;;;;;;;6.78;5.57;;;;;;;27.28;46.21;100669.94;5035785;28;20421;-59
2021/06/17 02:44:27;;;;;;;7.68;6.00;;;;;;;27.25;46.51;100667.69;5035775;28;20020;-58
2021/06/17 02:46:53;;;;;;;6.55;5.93;;;;;;;27.22;46.09;100660.72;5020079;28;20051;-58
2021/06/17 02:49:19;;;;;;;7.63;5.85;;;;;;;27.21;45.91;100658.22;5054138;28;20033;-58
2021/06/17 02:51:44;;;;;;;7.25;5.70;;;;;;;27.17;46.53;100661.47;5053511;28;20029;-58
2021/06/17 02:54:10;;;;;;;8.90;6.18;;;;;;;27.15;45.95;100658.13;5035722;28;20024;-58
2021/06/17 02:57:00;;;;;;;14.13;6.35;;;;;;;27.12;46.61;100664.09;5053666;28;20112;-59
2021/06/17 02:59:46;;;;;;;6.57;5.78;;;;;;;27.04;46.08;100653.47;5053742;28;20361;-58
2021/06/17 03:02:17;;;;;;;7.53;6.43;;;;;;;27.04;46.09;100669.97;5053433;28;20159;-58
2021/06/17 03:04:47;;;;;;;7.72;6.57;;;;;;;27.02;46.40;100671.31;5057197;28;20057;-58
2021/06/17 03:07:19;;;;;;;12.07;6.55;;;;;;;27.01;46.36;100662.22;5039705;28;20515;-59
2021/06/17 03:09:46;;;;;;;9.18;6.13;;;;;;;27.00;45.98;100660.53;5056215;28;20028;-58
2021/06/17 03:12:14;;;;;;;7.30;6.38;;;;;;;26.95;46.45;100649.41;5039901;28;20028;-58
2021/06/17 03:14:40;;;;;;;6.85;5.93;;;;;;;26.91;46.65;100648.22;5057517;28;20029;-58
2021/06/17 03:17:07;;;;;;;13.18;7.57;;;;;;;26.90;46.48;100641.06;5057293;28;20078;-58
2021/06/17 03:19:33;;;;;;;9.02;7.45;;;;;;;26.93;46.58;100653.50;5039368;28;20021;-58
2021/06/17 03:22:02;;;;;;;8.73;6.70;;;;;;;26.92;46.30;100660.91;5056548;28;20024;-59
2021/06/17 03:24:30;;;;;;;9.23;6.95;;;;;;;26.90;46.57;100657.56;5023067;28;20074;-58
2021/06/17 03:26:56;;;;;;;10.10;7.07;;;;;;;26.87;46.78;100658.03;5039656;28;20342;-58
2021/06/17 03:29:25;;;;;;;9.13;6.07;;;;;;;26.89;46.83;100655.88;5056375;28;20361;-58
2021/06/17 03:31:50;;;;;;;10.18;6.20;;;;;;;26.89;46.86;100661.38;5055784;28;20102;-57
2021/06/17 03:34:16;;;;;;;9.82;7.22;;;;;;;26.85;46.78;100654.69;5038929;28;20533;-58
2021/06/17 03:36:42;;;;;;;8.45;6.88;;;;;;;26.88;46.47;100659.72;5039331;28;20111;-58
2021/06/17 03:39:08;;;;;;;11.63;7.60;;;;;;;26.88;47.14;100658.88;5039461;28;20029;-59
2021/06/17 03:41:34;;;;;;;10.73;6.45;;;;;;;26.93;47.23;100668.06;5038700;28;20044;-58
2021/06/17 03:44:00;;;;;;;8.75;6.50;;;;;;;26.94;46.86;100658.72;5055606;28;20123;-59
2021/06/17 03:46:27;;;;;;;10.40;6.80;;;;;;;27.00;46.93;100663.28;5038904;28;20023;-59
2021/06/17 03:48:52;;;;;;;9.23;6.07;;;;;;;27.05;46.91;100665.31;5056836;28;20040;-59
2021/06/17 03:51:17;;;;;;;12.63;6.53;;;;;;;27.08;47.42;100665.66;5055110;28;20029;-59
2021/06/17 03:53:45;;;;;;;10.55;7.25;;;;;;;27.10;46.79;100663.53;5038536;28;20481;-59
2021/06/17 03:56:12;;;;;;;7.70;6.20;;;;;;;27.13;46.67;100663.03;5056607;28;20025;-59
2021/06/17 03:58:38;;;;;;;8.52;5.78;;;;;;;27.15;47.42;100665.53;5038284;28;20029;-59
2021/06/17 04:01:03;;;;;;;10.95;6.22;;;;;;;27.20;47.52;100668.41;5054976;28;20090;-59
2021/06/17 04:03:29;;;;;;;9.73;6.28;;;;;;;27.24;47.07;100666.84;5055135;28;20359;-59
2021/06/17 04:05:56;;;;;;;13.48;7.20;;;;;;;27.27;47.29;100660.03;5054616;28;20071;-59
2021/06/17 04:08:26;;;;;;;13.77;7.38;;;;;;;27.31;47.44;100661.19;5056352;28;20082;-59
2021/06/17 04:10:59;;;;;;;9.40;6.32;;;;;;;27.40;47.52;100662.50;5056059;28;20036;-59
2021/06/17 04:13:30;;;;;;;8.38;5.93;;;;;;;27.44;47.21;100653.56;5037643;28;20362;-59
2021/06/17 04:15:57;;;;;;;10.80;6.55;;;;;;;27.53;46.87;100659.47;5055118;28;20101;-58
2021/06/17 04:18:24;;;;;;;13.98;7.43;;;;;;;27.59;47.08;100666.78;5054964;28;20021;-59
2021/06/17 04:20:50;;;;;;;8.57;6.18;;;;;;;27.63;46.90;100670.72;5038004;28;20432;-59
2021/06/17 04:23:19;;;;;;;10.23;5.70;;;;;;;27.67;47.59;100669.13;5038110;28;20115;-59
2021/06/17 04:25:45;;;;;;;11.32;7.00;;;;;;;27.73;47.82;100670.91;5038280;28;20032;-59
2021/06/17 04:28:11;;;;;;;9.50;6.05;;;;;;;27.76;47.37;100667.66;5054871;28;20403;-59
2021/06/17 04:30:37;;;;;;;8.13;5.97;;;;;;;27.81;47.65;100659.50;5056257;28;20025;-59
2021/06/17 04:33:06;;;;;;;6.13;5.05;;;;;;;27.88;47.48;100671.22;5056016;28;20029;-59
2021/06/17 04:35:33;;;;;;;10.43;5.35;;;;;;;27.94;47.13;100666.63;5056090;28;20480;-58
2021/06/17 04:37:59;;;;;;;9.02;5.38;;;;;;;28.00;46.96;100674.72;5037762;28;20382;-59
2021/06/17 04:40:26;;;;;;;11.00;6.47;;;;;;;28.07;47.62;100680.97;5054400;28;20380;-58
2021/06/17 04:42:54;;;;;;;8.13;5.85;;;;;;;28.14;46.86;100681.63;5055278;28;20025;-59
2021/06/17 04:45:26;;;;;;;6.47;5.15;;;;;;;28.20;47.53;100677.06;5054427;28;20025;-58
2021/06/17 04:47:52;;;;;;;8.05;5.20;;;;;;;28.26;46.33;100681.56;5020865;28;20032;-59
2021/06/17 04:50:18;;;;;;;7.13;5.05;;;;;;;28.31;46.83;100682.50;5054354;28;20032;-59
2021/06/17 04:52:49;;;;;;;7.65;5.55;;;;;;;28.37;47.53;100669.66;5055386;28;20075;-59
2021/06/17 04:55:15;;;;;;;13.57;5.53;;;;;;;28.40;47.04;100676.56;5055091;28;20056;-58
2021/06/17 04:57:40;;;;;;;17.17;5.47;;;;;;;28.46;46.66;100678.34;5055213;28;20053;-59
2021/06/17 05:00:07;;;;;;;9.02;4.80;;;;;;;28.49;46.25;100672.31;5054933;28;20029;-59
2021/06/17 05:02:33;;;;;;;5.97;4.75;;;;;;;28.56;46.38;100668.31;5054952;28;20107;-59
2021/06/17 05:04:58;;;;;;;6.90;4.72;;;;;;;28.62;46.80;100675.56;5054457;28;20060;-59
2021/06/17 05:07:39;;;;;;;7.32;4.50;;;;;;;28.68;45.65;100676.53;5054847;28;20029;-59
2021/06/17 05:12:50;;;;;;;6.13;4.20;;;;;;;28.80;45.92;100691.06;5039745;28;20044;-59
2021/06/17 05:15:15;;;;;;;7.15;4.82;;;;;;;28.85;45.82;100688.38;5054719;28;20029;-59
2021/06/17 05:17:41;;;;;;;7.68;4.88;;;;;;;28.89;45.93;100684.03;5054572;28;20025;-58
2021/06/17 05:20:07;;;;;;;9.45;4.72;;;;;;;28.92;46.72;100700.09;5054350;28;20396;-58
2021/06/17 05:22:34;;;;;;;11.32;5.13;;;;;;;28.97;46.66;100691.03;5036426;28;20112;-58
2021/06/17 05:24:59;;;;;;;8.10;4.90;;;;;;;29.04;46.34;100698.03;5036336;28;20031;-59
2021/06/17 05:27:25;;;;;;;8.10;4.93;;;;;;;29.11;45.84;100697.88;5054524;28;20115;-59
2021/06/17 05:29:50;;;;;;;7.45;4.40;;;;;;;29.18;45.43;100693.84;5037282;28;20024;-58
2021/06/17 05:32:16;;;;;;;5.40;4.28;;;;;;;29.23;45.75;100696.69;5036314;28;20021;-59
2021/06/17 05:34:41;;;;;;;6.95;4.45;;;;;;;29.32;45.44;100699.84;5054644;28;20024;-59
2021/06/17 05:37:07;;;;;;;8.00;4.47;;;;;;;29.40;46.40;100697.47;5054129;28;20021;-59
2021/06/17 05:39:32;;;;;;;7.70;4.78;;;;;;;29.51;46.06;100703.16;5036520;28;20164;-59
2021/06/17 05:41:58;;;;;;;7.20;4.55;;;;;;;29.59;45.82;100688.91;5054397;28;20457;-59
2021/06/17 05:44:23;;;;;;;6.03;4.85;;;;;;;29.71;45.60;100695.94;5053996;28;20085;-58
2021/06/17 05:46:48;;;;;;;8.80;4.32;;;;;;;29.81;45.14;100690.59;5053688;28;20021;-59
2021/06/17 05:49:14;;;;;;;6.15;4.25;;;;;;;29.93;46.35;100684.88;5054116;28;20024;-60
2021/06/17 05:51:40;;;;;;;8.82;4.65;;;;;;;29.99;45.72;100690.22;5053353;28;20052;-59
2021/06/17 05:54:05;;;;;;;4.60;3.60;;;;;;;30.11;45.08;100686.47;5053708;28;20393;-59
2021/06/17 05:56:31;;;;;;;6.65;3.90;;;;;;;30.20;45.80;100691.28;5053848;28;20090;-58
2021/06/17 05:58:57;;;;;;;7.70;4.38;;;;;;;30.35;44.91;100704.38;5053840;28;20025;-59
2021/06/17 06:01:22;;;;;;;6.05;4.07;;;;;;;30.42;45.08;100705.88;5053753;28;20029;-58
2021/06/17 06:03:48;;;;;;;10.32;5.03;;;;;;;30.51;44.67;100709.00;5053983;28;20113;-58
2021/06/17 06:06:13;;;;;;;4.85;3.97;;;;;;;30.60;45.17;100706.59;5048941;28;20126;-59
2021/06/17 06:08:39;;;;;;;7.55;3.97;;;;;;;30.69;44.29;100710.53;5053563;28;20124;-59
2021/06/17 06:11:04;;;;;;;10.13;4.10;;;;;;;30.82;44.07;100704.56;5053370;28;20061;-58
2021/06/17 06:13:31;;;;;;;6.60;4.25;;;;;;;30.87;43.80;100699.06;5053509;28;20060;-59
2021/06/17 06:15:56;;;;;;;6.55;3.42;;;;;;;30.91;43.99;100695.47;5053723;28;20037;-59
2021/06/17 06:18:26;;;;;;;5.20;3.78;;;;;;;30.99;43.83;100691.44;5052516;28;20112;-59
2021/06/17 06:20:56;;;;;;;6.03;3.95;;;;;;;31.04;43.83;100695.06;5052737;28;20378;-59
2021/06/17 06:23:21;;;;;;;5.15;3.33;;;;;;;31.11;43.13;100695.66;5053098;28;20029;-60
2021/06/17 06:25:49;;;;;;;3.90;3.22;;;;;;;31.23;43.13;100700.97;5053455;28;20032;-59
2021/06/17 06:28:14;;;;;;;14.00;3.60;;;;;;;31.31;43.11;100694.94;5053444;28;20037;-59
2021/06/17 06:30:40;;;;;;;11.15;3.28;;;;;;;31.34;43.01;100691.63;5053675;28;20036;-59
2021/06/17 06:33:05;;;;;;;8.23;3.30;;;;;;;31.35;43.27;100704.34;5053465;28;20521;-59
2021/06/17 06:35:31;;;;;;;7.05;3.15;;;;;;;31.35;43.35;100704.34;5035254;28;20049;-59
2021/06/17 06:37:56;;;;;;;5.60;3.30;;;;;;;31.35;43.01;100704.34;5055885;28;20108;-59
2021/06/17 06:40:24;;;;;;;10.25;3.47;;;;;;;31.35;43.49;100707.13;5057570;28;20032;-59
2021/06/17 06:42:51;;;;;;;8.32;3.35;;;;;;;31.38;42.61;100717.66;5057608;28;20028;-60
2021/06/17 06:45:16;;;;;;;9.82;3.25;;;;;;;31.44;43.16;100713.81;5056047;28;20116;-58
2021/06/17 06:47:42;;;;;;;4.88;3.03;;;;;;;31.48;43.31;100703.06;5057315;28;20064;-58
2021/06/17 06:50:08;;;;;;;5.00;3.35;;;;;;;31.56;43.15;100708.94;5057473;28;20025;-59
2021/06/17 06:52:34;;;;;;;6.68;2.80;;;;;;;32.07;42.60;100717.47;5057117;28;20037;-58
2021/06/17 06:54:59;;;;;;;8.57;3.70;;;;;;;32.14;42.33;100740.19;5057477;28;20036;-60
2021/06/17 06:57:26;;;;;;;7.55;3.10;;;;;;;32.09;42.67;100742.97;5057401;28;20057;-60
2021/06/17 06:59:52;;;;;;;6.75;3.53;;;;;;;32.19;42.77;100748.53;5039099;28;20075;-59
2021/06/17 07:02:17;;;;;;;5.63;3.08;;;;;;;32.62;42.25;100758.34;5057211;28;20420;-60
2021/06/17 07:04:42;;;;;;;4.10;3.55;;;;;;;33.07;41.24;100760.31;5039151;28;20033;-60
2021/06/17 07:07:08;;;;;;;6.28;3.53;;;;;;;33.47;40.20;100765.78;5048093;28;20534;-59
2021/06/17 07:09:34;;;;;;;7.97;3.38;;;;;;;33.83;40.70;100767.38;5056952;28;20032;-59
2021/06/17 07:12:00;;;;;;;6.47;3.63;;;;;;;34.19;40.20;100770.00;5055864;28;20104;-59
2021/06/17 07:14:25;;;;;;;6.40;2.92;;;;;;;34.51;38.97;100761.97;5055881;28;20112;-59
2021/06/17 07:16:51;;;;;;;3.65;2.25;;;;;;;34.79;37.78;100761.25;5056624;28;20068;-60
2021/06/17 07:19:16;;;;;;;10.68;4.03;;;;;;;35.07;37.97;100760.47;5056794;28;20358;-59
2021/06/17 07:21:42;;;;;;;3.47;2.20;;;;;;;35.34;37.34;100757.16;5056631;28;20100;-60
2021/06/17 07:24:07;;;;;;;6.20;2.40;;;;;;;35.59;36.85;100756.91;5056783;28;20052;-59
2021/06/17 07:26:33;;;;;;;2.97;2.10;;;;;;;35.77;36.46;100749.69;5038721;28;20489;-59
2021/06/17 07:29:00;;;;;;;4.22;2.40;;;;;;;36.04;35.66;100758.28;5056713;28;20040;-59
2021/06/17 07:31:25;;;;;;;2.97;2.30;;;;;;;36.31;35.11;100765.16;5056439;28;20035;-59
2021/06/17 07:33:51;;;;;;;9.45;2.35;;;;;;;36.58;34.63;100768.13;5056376;28;20116;-60
2021/06/17 07:36:17;;;;;;;8.50;2.13;;;;;;;36.83;34.40;100767.72;5056544;28;20029;-59
2021/06/17 07:38:43;;;;;;;2.30;2.03;;;;;;;37.05;34.04;100759.53;5055336;28;20036;-60
2021/06/17 07:41:09;;;;;;;3.72;2.15;;;;;;;37.31;33.44;100752.34;5038363;28;20457;-60
2021/06/17 07:43:34;;;;;;;2.38;1.95;;;;;;;37.55;33.21;100752.16;5056503;28;20461;-59
2021/06/17 07:45:59;;;;;;;6.18;2.55;;;;;;;37.83;32.76;100758.63;5056703;28;20033;-59
2021/06/17 07:48:26;;;;;;;1.67;1.50;;;;;;;38.04;32.17;100748.66;5055600;28;20072;-60
2021/06/17 07:50:52;;;;;;;4.82;2.20;;;;;;;38.27;32.18;100752.34;5038687;28;20036;-60
2021/06/17 07:53:17;;;;;;;3.20;1.70;;;;;;;38.44;31.99;100741.31;5056092;28;20397;-59
2021/06/17 07:55:44;;;;;;;1.83;1.30;;;;;;;38.67;31.84;100744.97;5038108;28;20428;-60
2021/06/17 07:58:10;;;;;;;1.63;1.50;;;;;;;38.91;31.29;100735.09;5056150;28;20127;-60
2021/06/17 08:00:35;;;;;;;3.30;1.90;;;;;;;39.12;31.61;100735.38;5055880;28;20037;-59
2021/06/17 08:03:00;;;;;;;1.98;1.50;;;;;;;39.34;30.44;100738.16;5056172;28;20025;-60
2021/06/17 08:05:26;;;;;;;5.63;1.80;;;;;;;39.51;31.24;100746.66;5056125;28;20036;-60
2021/06/17 08:07:51;;;;;;;4.68;1.70;;;;;;;39.73;30.96;100739.34;5055708;28;20049;-60
2021/06/17 08:10:17;;;;;;;2.50;1.70;;;;;;;39.89;30.04;100729.31;5055668;28;20029;-59
2021/06/17 08:12:42;;;;;;;2.45;1.40;;;;;;;40.03;30.49;100728.00;5056091;28;20393;-59
2021/06/17 08:15:08;;;;;;;1.77;1.42;;;;;;;40.18;30.17;100723.91;5054636;28;20433;-59
2021/06/17 08:17:34;;;;;;;5.00;1.77;;;;;;;40.30;29.48;100715.66;5055815;28;20031;-59
2021/06/17 08:19:59;;;;;;;4.85;1.60;;;;;;;40.40;29.28;100715.31;5037586;28;20111;-59
2021/06/17 08:22:27;;;;;;;4.82;1.90;;;;;;;40.58;29.58;100717.00;5056050;28;20120;-60
2021/06/17 08:24:53;;;;;;;2.88;1.65;;;;;;;40.87;28.38;100707.03;5055803;28;20090;-60
2021/06/17 08:27:18;;;;;;;1.92;1.75;;;;;;;41.00;28.86;100717.28;5055629;28;20027;-60
2021/06/17 08:29:44;;;;;;;2.90;1.60;;;;;;;40.78;28.69;100703.41;5037605;28;20104;-61
2021/06/17 08:32:09;;;;;;;3.72;2.80;;;;;;;40.58;28.68;100697.34;5055259;28;20025;-60
2021/06/17 08:34:35;;;;;;;6.13;1.80;;;;;;;40.40;28.97;100681.59;5055219;28;20449;-59
2021/06/17 08:37:00;;;;;;;7.35;1.60;;;;;;;40.41;29.06;100680.47;5055580;28;20074;-59
2021/06/17 08:39:28;;;;;;;4.65;2.03;;;;;;;40.67;28.44;100675.69;5055676;28;20029;-59
2021/06/17 08:41:54;;;;;;;2.67;2.00;;;;;;;40.49;28.21;100670.41;5055329;28;20029;-60
2021/06/17 08:44:19;;;;;;;2.22;1.65;;;;;;;40.24;28.42;100672.03;5055683;28;20385;-60
2021/06/17 08:46:45;;;;;;;3.60;1.70;;;;;;;40.54;28.75;100673.84;5055255;28;20052;-60
2021/06/17 08:49:11;;;;;;;3.05;1.70;;;;;;;40.69;28.58;100673.34;5053894;28;20029;-60
2021/06/17 08:51:40;;;;;;;2.75;1.48;;;;;;;41.00;28.09;100691.97;5055450;28;20021;-60
2021/06/17 08:54:06;;;;;;;4.22;1.80;;;;;;;41.00;28.80;100697.59;5054010;28;20036;-59
2021/06/17 08:56:31;;;;;;;6.03;3.30;;;;;;;41.09;28.40;100687.16;5055077;28;20059;-60
2021/06/17 08:58:58;;;;;;;5.60;2.17;;;;;;;40.89;28.72;100682.22;5054964;28;20092;-60
2021/06/17 09:01:24;;;;;;;6.15;1.85;;;;;;;40.71;28.33;100686.25;5053769;28;20029;-60
2021/06/17 09:03:49;;;;;;;2.05;1.88;;;;;;;40.63;28.20;100679.47;5054989;28;20040;-60
2021/06/17 09:06:19;;;;;;;5.82;1.77;;;;;;;40.52;28.30;100676.19;5052756;28;20028;-60
2021/06/17 09:08:57;;;;;;;2.35;1.77;;;;;;;40.31;29.47;100672.38;5000883;28;20048;-60
2021/06/17 09:11:22;;;;;;;4.88;1.90;;;;;;;40.09;28.79;100672.56;5034827;28;20060;-60
2021/06/17 09:13:48;;;;;;;2.00;1.70;;;;;;;39.82;29.55;100670.00;5034500;28;20112;-60
2021/06/17 09:16:26;;;;;;;6.43;2.10;;;;;;;39.52;29.94;100666.97;5016774;28;20567;-60
2021/06/17 09:18:51;;;;;;;2.75;2.40;;;;;;;39.44;29.08;100690.19;5034288;28;20025;-60
2021/06/17 09:21:17;;;;;;;6.28;2.08;;;;;;;39.40;29.57;100683.56;5034706;28;20035;-60
2021/06/17 09:23:47;;;;;;;3.78;1.85;;;;;;;39.52;30.29;100691.38;5034353;28;20478;-61
2021/06/17 09:26:21;;;;;;;3.65;2.00;;;;;;;39.71;29.86;100691.13;5017012;28;20029;-60
2021/06/17 09:29:07;;;;;;;4.70;1.75;;;;;;;39.80;29.62;100694.78;5034231;28;20024;-60
2021/06/17 09:31:40;;;;;;;3.75;1.98;;;;;;;39.87;28.82;100700.75;5016508;28;20095;-60
2021/06/17 09:34:07;;;;;;;2.85;2.03;;;;;;;40.01;29.14;100692.97;5034685;28;20036;-60
2021/06/17 09:36:33;;;;;;;3.70;2.00;;;;;;;40.11;28.63;100692.69;5034381;28;20092;-61
2021/06/17 09:39:00;;;;;;;2.78;1.63;;;;;;;40.09;28.72;100697.81;5000045;28;20024;-60
2021/06/17 09:41:37;;;;;;;3.42;2.13;;;;;;;40.13;29.07;100704.41;5034006;28;20041;-60
2021/06/17 09:44:04;;;;;;;7.43;2.20;;;;;;;40.13;29.20;100707.22;5034138;28;20028;-60
2021/06/17 09:46:29;;;;;;;3.22;1.85;;;;;;;40.03;29.29;100682.25;5034132;28;20026;-60
2021/06/17 09:49:02;;;;;;;5.03;2.38;;;;;;;40.30;28.44;100701.63;5034261;28;20117;-60
2021/06/17 09:51:41;;;;;;;3.72;2.08;;;;;;;40.15;29.30;100696.47;5034034;28;20394;-60
2021/06/17 09:54:13;;;;;;;3.78;2.10;;;;;;;40.05;29.55;100705.22;5034095;28;20026;-60
2021/06/17 09:56:38;;;;;;;;;;;;;;;39.95;29.64;100708.34;5034147;28;20033;-60
2021/06/17 09:59:05;;;;;;;3.97;2.28;;;;;;;39.81;29.08;100710.47;5033677;28;19923;-60
2021/06/17 10:01:37;;;;;;;4.72;2.00;;;;;;;39.71;28.83;100713.56;5034061;28;20373;-60
2021/06/17 10:04:13;;;;;;;2.63;2.00;;;;;;;39.61;29.05;100719.47;5033637;28;20040;-59
2021/06/17 10:06:41;;;;;;;2.78;2.20;;;;;;;39.66;28.99;100727.75;5036809;28;20049;-61
2021/06/17 10:09:09;;;;;;;3.30;2.20;;;;;;;39.74;29.87;100726.94;5052501;28;20531;-60
2021/06/17 10:11:35;;;;;;;3.50;2.65;;;;;;;39.71;29.62;100721.97;5053358;28;20117;-61
2021/06/17 10:14:02;;;;;;;4.88;2.47;;;;;;;39.90;28.93;100730.94;5035986;28;20020;-60
2021/06/17 10:16:28;;;;;;;3.70;2.80;;;;;;;40.55;28.79;100728.91;5053648;28;20040;-60
2021/06/17 10:18:54;;;;;;;7.53;2.55;;;;;;;40.61;28.84;100738.00;5053605;28;20033;-60
2021/06/17 10:21:19;;;;;;;5.68;2.00;;;;;;;40.35;28.57;100740.78;5053631;28;20428;-60
2021/06/17 10:23:46;;;;;;;2.85;2.00;;;;;;;40.12;28.40;100751.31;5053629;28;20024;-60
2021/06/17 10:26:12;;;;;;;2.58;2.17;;;;;;;39.94;28.57;100748.78;5036080;28;20103;-60
2021/06/17 10:28:46;;;;;;;4.28;2.88;;;;;;;39.81;29.05;100752.56;5052426;28;20017;-60
2021/06/17 10:31:13;;;;;;;5.93;2.20;;;;;;;39.79;29.79;100754.84;5052243;28;20021;-59
2021/06/17 10:33:39;;;;;;;4.53;2.60;;;;;;;39.91;29.44;100747.47;5035743;28;20045;-60
2021/06/17 10:36:17;;;;;;;3.60;1.95;;;;;;;40.03;29.62;100755.25;5053538;28;20040;-60
2021/06/17 10:39:04;;;;;;;5.78;2.45;;;;;;;40.18;29.37;100757.59;5036133;28;20450;-60
2021/06/17 10:41:49;;;;;;;2.88;2.40;;;;;;;40.24;29.28;100750.69;5053120;28;20017;-60
2021/06/17 10:44:37;;;;;;;2.42;2.22;;;;;;;40.27;29.61;100755.63;5053246;28;20082;-60
2021/06/17 10:47:05;;;;;;;3.70;1.90;;;;;;;40.32;30.01;100754.63;5053268;28;20025;-60
2021/06/17 10:49:48;;;;;;;2.65;2.25;;;;;;;40.47;29.00;100760.59;5054264;28;20350;-60
2021/06/17 10:52:31;;;;;;;2.03;1.77;;;;;;;40.49;29.61;100751.88;5035187;28;20441;-60
2021/06/17 10:54:58;;;;;;;6.97;2.38;;;;;;;40.87;28.74;100755.66;5053604;28;20104;-59
2021/06/17 10:57:42;;;;;;;3.58;2.95;;;;;;;41.79;28.56;100754.91;5053080;28;20025;-60
2021/06/17 11:00:26;;;;;;;5.63;2.83;;;;;;;42.45;27.61;100749.47;5053174;28;20032;-60
2021/06/17 11:02:58;;;;;;;3.92;2.70;;;;;;;43.14;26.99;100746.84;5053156;28;20025;-59
2021/06/17 11:08:19;;;;;;;;;;;;;;;44.23;26.53;100740.44;5053355;28;20076;-60
2021/06/17 11:11:01;;;;;;;3.30;2.03;;;;;;;44.18;26.02;100738.69;5052985;28;19912;-60
2021/06/17 11:13:35;;;;;;;5.07;2.22;;;;;;;44.58;25.45;100739.53;5053270;28;20025;-60
2021/06/17 11:16:05;;;;;;;2.85;2.47;;;;;;;45.06;25.51;100737.66;5035592;28;20056;-60
2021/06/17 11:18:47;;;;;;;3.63;2.50;;;;;;;45.50;24.30;100736.44;5035415;28;20033;-60
2021/06/17 11:21:21;;;;;;;6.25;2.50;;;;;;;45.87;23.95;100742.63;5052962;28;20021;-60
2021/06/17 11:23:54;;;;;;;9.27;2.85;;;;;;;46.15;23.77;100745.31;5054075;28;20021;-61
2021/06/17 11:26:36;;;;;;;4.38;2.13;;;;;;;46.39;23.37;100749.91;5056930;28;20079;-61
2021/06/17 11:29:06;;;;;;;8.23;2.05;;;;;;;46.64;23.19;100751.25;5057157;28;20025;-61
2021/06/17 11:31:52;;;;;;;8.18;2.35;;;;;;;46.83;23.48;100747.59;5055633;28;20035;-60
2021/06/17 11:34:30;;;;;;;3.95;2.35;;;;;;;46.86;23.09;100747.66;5056976;28;20104;-60